WMT72ZH LIBR-LROP
Flight info
| Callsign | WMT72ZH |
|---|---|
| Flight time | 1h 20m |
| Altitude | 35000 |
| Route | KAPPO P92 PAPIZ DCT DOBAR P127 VELBA/N0446F390 T343 BLO/N0446F380 Q24 SOMOV Z937 SORDU |
| Aircraft | A21N/M-SDE2E3FGHIRWXY/LB1 |
Departure
| Time | 2026-04-25 18:30 |
|---|---|
| Airport | Brindisi Airport (LIBR) |
Arrival
| Time | 2026-04-25 19:50 |
|---|---|
| Airport | Bucharest Henri Coandă International Airport (LROP) |
| Time | Latitude | Longitude | Altitude | Speed | Heading |
|---|---|---|---|---|---|
| 2026-04-25 18:10 | 40.65704 | 17.93925 | 44 ft | 0 kts | 322° |
| 2026-04-25 18:19 | 40.65698 | 17.93930 | 44 ft | 2 kts | 322° |
| 2026-04-25 18:20 | 40.65685 | 17.93944 | 41 ft | 2 kts | 324° |
| 2026-04-25 18:20 | 40.65672 | 17.93957 | 44 ft | 2 kts | 326° |
| 2026-04-25 18:20 | 40.65659 | 17.93970 | 41 ft | 2 kts | 327° |
| 2026-04-25 18:20 | 40.65645 | 17.93982 | 44 ft | 2 kts | 329° |
| 2026-04-25 18:21 | 40.65631 | 17.93992 | 42 ft | 2 kts | 338° |
| 2026-04-25 18:21 | 40.65616 | 17.93995 | 43 ft | 2 kts | 38° |
| 2026-04-25 18:21 | 40.65607 | 17.93991 | 43 ft | 1 kts | 85° |
| 2026-04-25 18:21 | 40.65607 | 17.93992 | 43 ft | 0 kts | 86° |
| 2026-04-25 18:25 | 40.65616 | 17.94015 | 42 ft | 6 kts | 49° |
| 2026-04-25 18:25 | 40.65664 | 17.94077 | 44 ft | 14 kts | 48° |
| 2026-04-25 18:25 | 40.65736 | 17.94199 | 44 ft | 11 kts | 53° |
| 2026-04-25 18:25 | 40.65780 | 17.94274 | 44 ft | 14 kts | 52° |
| 2026-04-25 18:26 | 40.65854 | 17.94401 | 43 ft | 21 kts | 51° |
| 2026-04-25 18:26 | 40.65953 | 17.94563 | 39 ft | 20 kts | 51° |
| 2026-04-25 18:26 | 40.66021 | 17.94710 | 43 ft | 16 kts | 91° |
| 2026-04-25 18:26 | 40.65983 | 17.94858 | 43 ft | 13 kts | 128° |
| 2026-04-25 18:27 | 40.65958 | 17.94883 | 42 ft | 7 kts | 151° |
| 2026-04-25 18:27 | 40.65888 | 17.94930 | 43 ft | 15 kts | 149° |
| 2026-04-25 18:27 | 40.65791 | 17.95039 | 44 ft | 22 kts | 136° |
| 2026-04-25 18:27 | 40.65721 | 17.95127 | 44 ft | 2 kts | 137° |
| 2026-04-25 18:28 | 40.65685 | 17.95152 | 44 ft | 8 kts | 175° |
| 2026-04-25 18:28 | 40.65621 | 17.95098 | 43 ft | 15 kts | 228° |
| 2026-04-25 18:28 | 40.65631 | 17.94942 | 42 ft | 21 kts | 312° |
| 2026-04-25 18:29 | 40.65710 | 17.94847 | 42 ft | 0 kts | 319° |
| 2026-04-25 18:30 | 40.67342 | 17.92869 | 305 ft | 183 kts | 317° |
| 2026-04-25 18:30 | 40.68265 | 17.91722 | 984 ft | 184 kts | 316° |
| 2026-04-25 18:30 | 40.69219 | 17.90520 | 1737 ft | 192 kts | 316° |
| 2026-04-25 18:30 | 40.69858 | 17.89701 | 2258 ft | 195 kts | 316° |
| 2026-04-25 18:31 | 40.70820 | 17.88523 | 3341 ft | 182 kts | 318° |
| 2026-04-25 18:31 | 40.72060 | 17.87064 | 4351 ft | 181 kts | 318° |
| 2026-04-25 18:31 | 40.72687 | 17.86321 | 4520 ft | 182 kts | 317° |
| 2026-04-25 18:31 | 40.73621 | 17.85200 | 4593 ft | 179 kts | 317° |
| 2026-04-25 18:32 | 40.74535 | 17.84088 | 4927 ft | 180 kts | 317° |
| 2026-04-25 18:32 | 40.75468 | 17.82949 | 5419 ft | 182 kts | 317° |
| 2026-04-25 18:32 | 40.76326 | 17.81741 | 5910 ft | 184 kts | 301° |
| 2026-04-25 18:32 | 40.76768 | 17.80070 | 6473 ft | 204 kts | 277° |
| 2026-04-25 18:33 | 40.76656 | 17.78144 | 7262 ft | 223 kts | 257° |
| 2026-04-25 18:33 | 40.75922 | 17.76323 | 7641 ft | 236 kts | 225° |
| 2026-04-25 18:33 | 40.74480 | 17.75228 | 8146 ft | 241 kts | 192° |
| 2026-04-25 18:33 | 40.72809 | 17.75292 | 8603 ft | 246 kts | 161° |
| 2026-04-25 18:34 | 40.71206 | 17.76152 | 8989 ft | 248 kts | 155° |
| 2026-04-25 18:34 | 40.69626 | 17.77062 | 9373 ft | 249 kts | 150° |
| 2026-04-25 18:34 | 40.68276 | 17.78472 | 9758 ft | 248 kts | 127° |
| 2026-04-25 18:34 | 40.67476 | 17.80496 | 10154 ft | 266 kts | 100° |
| 2026-04-25 18:35 | 40.67176 | 17.83042 | 10531 ft | 297 kts | 95° |
| 2026-04-25 18:35 | 40.66892 | 17.85899 | 10911 ft | 327 kts | 95° |
| 2026-04-25 18:35 | 40.66583 | 17.88935 | 11234 ft | 345 kts | 96° |
| 2026-04-25 18:35 | 40.66214 | 17.92108 | 11525 ft | 349 kts | 102° |
| 2026-04-25 18:36 | 40.65313 | 17.95045 | 11856 ft | 353 kts | 120° |
| 2026-04-25 18:36 | 40.63705 | 17.97541 | 12236 ft | 357 kts | 139° |
| 2026-04-25 18:36 | 40.61881 | 17.99718 | 12614 ft | 357 kts | 128° |
| 2026-04-25 18:36 | 40.60672 | 18.02548 | 13003 ft | 358 kts | 107° |
| 2026-04-25 18:37 | 40.60313 | 18.05779 | 13386 ft | 357 kts | 85° |
| 2026-04-25 18:37 | 40.60854 | 18.08921 | 13775 ft | 356 kts | 64° |
| 2026-04-25 18:37 | 40.62136 | 18.11703 | 14144 ft | 356 kts | 53° |
| 2026-04-25 18:37 | 40.63527 | 18.14448 | 14507 ft | 358 kts | 57° |
| 2026-04-25 18:38 | 40.64693 | 18.17364 | 14864 ft | 361 kts | 64° |
| 2026-04-25 18:38 | 40.65625 | 18.20397 | 15228 ft | 363 kts | 69° |
| 2026-04-25 18:38 | 40.66433 | 18.23566 | 15589 ft | 365 kts | 71° |
| 2026-04-25 18:38 | 40.67183 | 18.26820 | 15966 ft | 367 kts | 72° |
| 2026-04-25 18:39 | 40.67896 | 18.30016 | 16347 ft | 368 kts | 72° |
| 2026-04-25 18:39 | 40.68620 | 18.33280 | 16723 ft | 370 kts | 72° |
| 2026-04-25 18:39 | 40.69349 | 18.36552 | 17108 ft | 372 kts | 72° |
| 2026-04-25 18:39 | 40.70076 | 18.39802 | 17497 ft | 374 kts | 72° |
| 2026-04-25 18:40 | 40.70821 | 18.43121 | 17894 ft | 376 kts | 72° |
| 2026-04-25 18:40 | 40.71564 | 18.46431 | 18292 ft | 378 kts | 72° |
| 2026-04-25 18:40 | 40.72314 | 18.49773 | 18650 ft | 380 kts | 72° |
| 2026-04-25 18:40 | 40.73057 | 18.53091 | 18995 ft | 382 kts | 72° |
| 2026-04-25 18:41 | 40.73813 | 18.56467 | 19356 ft | 383 kts | 72° |
| 2026-04-25 18:41 | 40.74571 | 18.59853 | 19718 ft | 385 kts | 71° |
| 2026-04-25 18:41 | 40.75459 | 18.63187 | 20082 ft | 386 kts | 66° |
| 2026-04-25 18:41 | 40.76574 | 18.66423 | 20455 ft | 387 kts | 61° |
| 2026-04-25 18:42 | 40.77872 | 18.69489 | 20822 ft | 388 kts | 58° |
| 2026-04-25 18:42 | 40.78786 | 18.71538 | 21075 ft | 389 kts | 58° |
| 2026-04-25 18:42 | 40.80621 | 18.75685 | 21591 ft | 392 kts | 58° |
| 2026-04-25 18:42 | 40.81982 | 18.78776 | 21973 ft | 394 kts | 58° |
| 2026-04-25 18:43 | 40.83365 | 18.81921 | 22361 ft | 396 kts | 58° |
| 2026-04-25 18:43 | 40.84755 | 18.85088 | 22771 ft | 398 kts | 58° |
| 2026-04-25 18:43 | 40.86152 | 18.88269 | 23179 ft | 400 kts | 58° |
| 2026-04-25 18:43 | 40.87534 | 18.91425 | 23582 ft | 403 kts | 59° |
| 2026-04-25 18:44 | 40.88859 | 18.94720 | 23934 ft | 405 kts | 62° |
| 2026-04-25 18:44 | 40.90044 | 18.98145 | 24286 ft | 409 kts | 65° |
| 2026-04-25 18:44 | 40.91102 | 19.01676 | 24563 ft | 421 kts | 67° |
| 2026-04-25 18:44 | 40.92164 | 19.05317 | 24801 ft | 433 kts | 67° |
| 2026-04-25 18:45 | 40.93266 | 19.09086 | 25041 ft | 443 kts | 67° |
| 2026-04-25 18:45 | 40.94394 | 19.12944 | 25283 ft | 452 kts | 68° |
| 2026-04-25 18:45 | 40.95530 | 19.16833 | 25524 ft | 460 kts | 68° |
| 2026-04-25 18:45 | 40.96691 | 19.20812 | 25768 ft | 461 kts | 68° |
| 2026-04-25 18:46 | 40.97847 | 19.24781 | 26025 ft | 461 kts | 68° |
| 2026-04-25 18:46 | 40.98984 | 19.28690 | 26254 ft | 460 kts | 68° |
| 2026-04-25 18:46 | 41.00136 | 19.32657 | 26506 ft | 459 kts | 68° |
| 2026-04-25 18:46 | 41.01283 | 19.36614 | 26765 ft | 458 kts | 68° |
| 2026-04-25 18:47 | 41.02414 | 19.40519 | 27013 ft | 458 kts | 68° |
| 2026-04-25 18:47 | 41.03554 | 19.44459 | 27271 ft | 457 kts | 68° |
| 2026-04-25 18:47 | 41.04695 | 19.48409 | 27533 ft | 456 kts | 68° |
| 2026-04-25 18:47 | 41.05818 | 19.52303 | 27804 ft | 455 kts | 68° |
| 2026-04-25 18:48 | 41.06953 | 19.56247 | 28059 ft | 454 kts | 68° |
| 2026-04-25 18:48 | 41.08068 | 19.60126 | 28318 ft | 453 kts | 68° |
| 2026-04-25 18:48 | 41.09195 | 19.64051 | 28587 ft | 453 kts | 68° |
| 2026-04-25 18:48 | 41.10302 | 19.67916 | 28860 ft | 452 kts | 68° |
| 2026-04-25 18:49 | 41.11424 | 19.71837 | 29135 ft | 452 kts | 68° |
| 2026-04-25 18:49 | 41.12527 | 19.75696 | 29412 ft | 451 kts | 68° |
| 2026-04-25 18:49 | 41.13640 | 19.79599 | 29696 ft | 450 kts | 68° |
| 2026-04-25 18:49 | 41.14751 | 19.83498 | 29983 ft | 449 kts | 69° |
| 2026-04-25 18:50 | 41.15838 | 19.87322 | 30235 ft | 448 kts | 69° |
| 2026-04-25 18:50 | 41.16941 | 19.91206 | 30480 ft | 447 kts | 68° |
| 2026-04-25 18:50 | 41.18042 | 19.95092 | 30722 ft | 446 kts | 68° |
| 2026-04-25 18:50 | 41.19125 | 19.98918 | 30968 ft | 446 kts | 68° |
| 2026-04-25 18:51 | 41.20217 | 20.02783 | 31223 ft | 445 kts | 68° |
| 2026-04-25 18:51 | 41.20939 | 20.05340 | 31384 ft | 445 kts | 68° |
| 2026-04-25 18:51 | 41.22382 | 20.10461 | 31711 ft | 444 kts | 68° |
| 2026-04-25 18:51 | 41.23464 | 20.14310 | 31978 ft | 443 kts | 68° |
| 2026-04-25 18:52 | 41.24544 | 20.18157 | 32238 ft | 443 kts | 68° |
| 2026-04-25 18:52 | 41.25624 | 20.22010 | 32499 ft | 442 kts | 68° |
| 2026-04-25 18:52 | 41.26689 | 20.25814 | 32753 ft | 441 kts | 68° |
| 2026-04-25 18:52 | 41.27758 | 20.29636 | 33029 ft | 441 kts | 68° |
| 2026-04-25 18:53 | 41.28816 | 20.33427 | 33307 ft | 440 kts | 68° |
| 2026-04-25 18:53 | 41.29880 | 20.37246 | 33560 ft | 439 kts | 68° |
| 2026-04-25 18:53 | 41.30946 | 20.41075 | 33837 ft | 439 kts | 68° |
| 2026-04-25 18:53 | 41.32005 | 20.44884 | 34104 ft | 438 kts | 68° |
| 2026-04-25 18:54 | 41.34110 | 20.52457 | 34582 ft | 437 kts | 68° |
| 2026-04-25 18:54 | 41.35160 | 20.56226 | 34823 ft | 437 kts | 68° |
| 2026-04-25 18:54 | 41.36224 | 20.60041 | 35046 ft | 437 kts | 68° |
| 2026-04-25 18:55 | 41.37284 | 20.63846 | 35040 ft | 436 kts | 68° |
| 2026-04-25 18:55 | 41.39381 | 20.71388 | 35035 ft | 436 kts | 68° |
| 2026-04-25 18:56 | 41.41483 | 20.78982 | 35032 ft | 436 kts | 68° |
| 2026-04-25 18:56 | 41.43571 | 20.86547 | 35030 ft | 437 kts | 68° |
| 2026-04-25 18:57 | 41.45671 | 20.94177 | 35019 ft | 436 kts | 68° |
| 2026-04-25 18:57 | 41.47751 | 21.01757 | 35021 ft | 437 kts | 68° |
| 2026-04-25 18:58 | 41.49843 | 21.09406 | 35019 ft | 436 kts | 68° |
| 2026-04-25 18:58 | 41.52960 | 21.20847 | 35011 ft | 436 kts | 68° |
| 2026-04-25 18:59 | 41.57085 | 21.36070 | 35012 ft | 436 kts | 68° |
| 2026-04-25 19:00 | 41.60177 | 21.47544 | 35013 ft | 437 kts | 68° |
| 2026-04-25 19:01 | 41.63248 | 21.58991 | 35013 ft | 436 kts | 68° |
| 2026-04-25 19:01 | 41.65287 | 21.66621 | 35011 ft | 437 kts | 68° |
| 2026-04-25 19:02 | 41.68346 | 21.78115 | 35011 ft | 437 kts | 68° |
| 2026-04-25 19:03 | 41.70723 | 21.87084 | 35008 ft | 437 kts | 68° |
| 2026-04-25 19:03 | 41.73426 | 21.97323 | 35002 ft | 437 kts | 68° |
| 2026-04-25 19:04 | 41.76450 | 22.08825 | 35005 ft | 437 kts | 68° |
| 2026-04-25 19:05 | 41.80103 | 22.22973 | 35016 ft | 438 kts | 68° |
| 2026-04-25 19:06 | 41.82088 | 22.30716 | 35013 ft | 438 kts | 68° |
| 2026-04-25 19:06 | 41.85053 | 22.42321 | 35020 ft | 439 kts | 68° |
| 2026-04-25 19:07 | 41.88009 | 22.53945 | 35037 ft | 439 kts | 69° |
| 2026-04-25 19:08 | 41.90951 | 22.65569 | 35020 ft | 439 kts | 69° |
| 2026-04-25 19:09 | 41.94538 | 22.79818 | 35033 ft | 439 kts | 69° |
| 2026-04-25 19:09 | 41.97491 | 22.88428 | 35023 ft | 433 kts | 54° |
| 2026-04-25 19:10 | 41.99300 | 22.91686 | 35019 ft | 431 kts | 47° |
| 2026-04-25 19:10 | 42.03479 | 22.97393 | 35024 ft | 429 kts | 42° |
| 2026-04-25 19:11 | 42.07729 | 23.03056 | 35017 ft | 430 kts | 43° |
| 2026-04-25 19:11 | 42.11956 | 23.08714 | 35028 ft | 430 kts | 43° |
| 2026-04-25 19:12 | 42.16199 | 23.14405 | 35020 ft | 430 kts | 43° |
| 2026-04-25 19:12 | 42.20446 | 23.20110 | 35027 ft | 431 kts | 43° |
| 2026-04-25 19:13 | 42.24697 | 23.25835 | 35037 ft | 432 kts | 43° |
| 2026-04-25 19:13 | 42.28930 | 23.31546 | 35041 ft | 432 kts | 43° |
| 2026-04-25 19:14 | 42.33198 | 23.37326 | 35046 ft | 433 kts | 43° |
| 2026-04-25 19:14 | 42.37447 | 23.43099 | 35039 ft | 433 kts | 43° |
| 2026-04-25 19:15 | 42.41687 | 23.48859 | 35036 ft | 433 kts | 43° |
| 2026-04-25 19:15 | 42.45919 | 23.54616 | 35047 ft | 433 kts | 43° |
| 2026-04-25 19:16 | 42.50175 | 23.60419 | 35035 ft | 432 kts | 43° |
| 2026-04-25 19:16 | 42.54411 | 23.66206 | 35048 ft | 433 kts | 43° |
| 2026-04-25 19:17 | 42.58727 | 23.71903 | 35041 ft | 431 kts | 39° |
| 2026-04-25 19:17 | 42.63246 | 23.77260 | 35037 ft | 432 kts | 38° |
| 2026-04-25 19:18 | 42.67873 | 23.82427 | 35040 ft | 430 kts | 34° |
| 2026-04-25 19:18 | 42.72753 | 23.87092 | 35038 ft | 430 kts | 32° |
| 2026-04-25 19:19 | 42.77675 | 23.91739 | 35033 ft | 430 kts | 32° |
| 2026-04-25 19:19 | 42.82594 | 23.96399 | 35035 ft | 431 kts | 32° |
| 2026-04-25 19:20 | 42.87515 | 24.01069 | 35030 ft | 431 kts | 32° |
| 2026-04-25 19:20 | 42.92455 | 24.05767 | 35027 ft | 431 kts | 32° |
| 2026-04-25 19:21 | 42.97382 | 24.10462 | 35033 ft | 431 kts | 32° |
| 2026-04-25 19:21 | 43.04770 | 24.17519 | 35018 ft | 432 kts | 32° |
| 2026-04-25 19:22 | 43.09666 | 24.22208 | 35021 ft | 432 kts | 32° |
| 2026-04-25 19:23 | 43.16922 | 24.29635 | 35014 ft | 433 kts | 34° |
| 2026-04-25 19:23 | 43.24141 | 24.37133 | 35012 ft | 434 kts | 34° |
| 2026-04-25 19:24 | 43.28980 | 24.42141 | 35011 ft | 435 kts | 33° |
| 2026-04-25 19:25 | 43.38643 | 24.52168 | 35011 ft | 435 kts | 33° |
| 2026-04-25 19:25 | 43.43443 | 24.57165 | 35005 ft | 435 kts | 33° |
| 2026-04-25 19:26 | 43.48266 | 24.62196 | 34477 ft | 434 kts | 33° |
| 2026-04-25 19:26 | 43.50674 | 24.64709 | 33471 ft | 439 kts | 34° |
| 2026-04-25 19:26 | 43.53142 | 24.67282 | 32139 ft | 447 kts | 34° |
| 2026-04-25 19:27 | 43.55651 | 24.69899 | 30973 ft | 453 kts | 34° |
| 2026-04-25 19:27 | 43.57263 | 24.71722 | 30270 ft | 455 kts | 41° |
| 2026-04-25 19:27 | 43.59919 | 24.76291 | 28994 ft | 455 kts | 55° |
| 2026-04-25 19:27 | 43.61564 | 24.79927 | 28465 ft | 443 kts | 56° |
| 2026-04-25 19:28 | 43.63171 | 24.83513 | 28168 ft | 430 kts | 56° |
| 2026-04-25 19:28 | 43.64736 | 24.86993 | 27627 ft | 427 kts | 56° |
| 2026-04-25 19:28 | 43.66304 | 24.90464 | 27071 ft | 420 kts | 55° |
| 2026-04-25 19:28 | 43.67833 | 24.93841 | 26526 ft | 413 kts | 55° |
| 2026-04-25 19:29 | 43.69343 | 24.97178 | 25991 ft | 405 kts | 55° |
| 2026-04-25 19:29 | 43.70829 | 25.00461 | 25457 ft | 398 kts | 55° |
| 2026-04-25 19:29 | 43.72275 | 25.03660 | 24935 ft | 392 kts | 55° |
| 2026-04-25 19:29 | 43.73720 | 25.06860 | 24429 ft | 386 kts | 55° |
| 2026-04-25 19:30 | 43.75142 | 25.10010 | 23914 ft | 386 kts | 55° |
| 2026-04-25 19:30 | 43.76558 | 25.13149 | 23372 ft | 385 kts | 55° |
| 2026-04-25 19:30 | 43.77968 | 25.16280 | 22841 ft | 379 kts | 55° |
| 2026-04-25 19:30 | 43.79358 | 25.19371 | 22335 ft | 378 kts | 55° |
| 2026-04-25 19:31 | 43.80749 | 25.22467 | 21825 ft | 376 kts | 55° |
| 2026-04-25 19:31 | 43.82119 | 25.25519 | 21321 ft | 373 kts | 55° |
| 2026-04-25 19:31 | 43.83493 | 25.28583 | 20812 ft | 371 kts | 55° |
| 2026-04-25 19:31 | 43.84835 | 25.31580 | 20305 ft | 369 kts | 56° |
| 2026-04-25 19:32 | 43.86181 | 25.34587 | 19826 ft | 366 kts | 56° |
| 2026-04-25 19:32 | 43.87525 | 25.37594 | 19310 ft | 364 kts | 56° |
| 2026-04-25 19:32 | 43.88850 | 25.40561 | 18820 ft | 362 kts | 56° |
| 2026-04-25 19:32 | 43.89289 | 25.41544 | 18648 ft | 362 kts | 56° |
| 2026-04-25 19:33 | 43.91486 | 25.46475 | 17794 ft | 356 kts | 56° |
| 2026-04-25 19:33 | 43.92776 | 25.49376 | 17296 ft | 355 kts | 56° |
| 2026-04-25 19:33 | 43.94095 | 25.52339 | 17041 ft | 373 kts | 56° |
| 2026-04-25 19:33 | 43.95484 | 25.55458 | 16868 ft | 379 kts | 56° |
| 2026-04-25 19:34 | 43.96882 | 25.58610 | 16351 ft | 380 kts | 56° |
| 2026-04-25 19:34 | 43.98246 | 25.61692 | 15878 ft | 372 kts | 56° |
| 2026-04-25 19:34 | 43.99600 | 25.64756 | 15730 ft | 369 kts | 56° |
| 2026-04-25 19:34 | 44.00950 | 25.67807 | 15469 ft | 371 kts | 56° |
| 2026-04-25 19:35 | 44.02290 | 25.70839 | 15196 ft | 368 kts | 56° |
| 2026-04-25 19:35 | 44.03614 | 25.73839 | 14924 ft | 366 kts | 56° |
| 2026-04-25 19:35 | 44.04951 | 25.76870 | 14652 ft | 365 kts | 56° |
| 2026-04-25 19:35 | 44.06281 | 25.79891 | 14380 ft | 364 kts | 56° |
| 2026-04-25 19:36 | 44.07590 | 25.82866 | 14106 ft | 362 kts | 56° |
| 2026-04-25 19:36 | 44.08902 | 25.85851 | 13835 ft | 361 kts | 56° |
| 2026-04-25 19:36 | 44.10212 | 25.88835 | 13548 ft | 359 kts | 56° |
| 2026-04-25 19:36 | 44.11510 | 25.91792 | 13282 ft | 357 kts | 56° |
| 2026-04-25 19:37 | 44.12804 | 25.94744 | 13017 ft | 356 kts | 56° |
| 2026-04-25 19:37 | 44.14090 | 25.97682 | 12749 ft | 355 kts | 56° |
| 2026-04-25 19:37 | 44.15360 | 26.00587 | 12488 ft | 353 kts | 56° |
| 2026-04-25 19:37 | 44.16630 | 26.03493 | 12226 ft | 352 kts | 56° |
| 2026-04-25 19:38 | 44.17913 | 26.06432 | 11956 ft | 350 kts | 57° |
| 2026-04-25 19:38 | 44.19178 | 26.09333 | 11696 ft | 349 kts | 57° |
| 2026-04-25 19:38 | 44.20422 | 26.12190 | 11487 ft | 345 kts | 57° |
| 2026-04-25 19:38 | 44.21255 | 26.14105 | 11416 ft | 336 kts | 57° |
| 2026-04-25 19:39 | 44.22788 | 26.17636 | 11002 ft | 319 kts | 57° |
| 2026-04-25 19:39 | 44.23922 | 26.20249 | 10645 ft | 308 kts | 57° |
| 2026-04-25 19:39 | 44.25093 | 26.22660 | 10395 ft | 292 kts | 47° |
| 2026-04-25 19:39 | 44.26498 | 26.24569 | 10160 ft | 277 kts | 36° |
| 2026-04-25 19:40 | 44.28043 | 26.26079 | 9982 ft | 265 kts | 32° |
| 2026-04-25 19:40 | 44.29066 | 26.27056 | 9917 ft | 270 kts | 32° |
| 2026-04-25 19:40 | 44.30616 | 26.28558 | 9726 ft | 267 kts | 33° |
| 2026-04-25 19:40 | 44.32126 | 26.30035 | 9534 ft | 266 kts | 33° |
| 2026-04-25 19:41 | 44.33634 | 26.31512 | 9318 ft | 263 kts | 33° |
| 2026-04-25 19:41 | 44.35138 | 26.32987 | 9204 ft | 259 kts | 33° |
| 2026-04-25 19:41 | 44.36568 | 26.34391 | 9135 ft | 252 kts | 33° |
| 2026-04-25 19:41 | 44.37530 | 26.35335 | 9098 ft | 253 kts | 33° |
| 2026-04-25 19:42 | 44.39458 | 26.37224 | 8681 ft | 254 kts | 33° |
| 2026-04-25 19:42 | 44.40920 | 26.38657 | 8282 ft | 254 kts | 33° |
| 2026-04-25 19:42 | 44.42338 | 26.40048 | 8034 ft | 247 kts | 33° |
| 2026-04-25 19:42 | 44.43732 | 26.41416 | 7738 ft | 243 kts | 33° |
| 2026-04-25 19:43 | 44.45082 | 26.42839 | 7620 ft | 247 kts | 45° |
| 2026-04-25 19:43 | 44.45956 | 26.44914 | 7525 ft | 247 kts | 69° |
| 2026-04-25 19:43 | 44.46788 | 26.46976 | 7265 ft | 243 kts | 43° |
| 2026-04-25 19:43 | 44.48199 | 26.48162 | 6925 ft | 238 kts | 13° |
| 2026-04-25 19:44 | 44.49823 | 26.48143 | 6574 ft | 236 kts | 341° |
| 2026-04-25 19:44 | 44.51289 | 26.47124 | 6205 ft | 236 kts | 330° |
| 2026-04-25 19:44 | 44.52710 | 26.45996 | 5884 ft | 234 kts | 331° |
| 2026-04-25 19:44 | 44.54163 | 26.44960 | 5517 ft | 236 kts | 334° |
| 2026-04-25 19:45 | 44.55676 | 26.44004 | 5073 ft | 239 kts | 336° |
| 2026-04-25 19:45 | 44.57218 | 26.43104 | 4577 ft | 242 kts | 337° |
| 2026-04-25 19:45 | 44.58755 | 26.42110 | 4054 ft | 240 kts | 322° |
| 2026-04-25 19:45 | 44.59791 | 26.40376 | 3558 ft | 235 kts | 292° |
| 2026-04-25 19:46 | 44.60038 | 26.38137 | 3069 ft | 233 kts | 266° |
| 2026-04-25 19:46 | 44.59845 | 26.35882 | 2641 ft | 230 kts | 261° |
| 2026-04-25 19:46 | 44.59606 | 26.33739 | 2507 ft | 215 kts | 262° |
| 2026-04-25 19:46 | 44.59410 | 26.31748 | 2497 ft | 198 kts | 263° |
| 2026-04-25 19:47 | 44.59262 | 26.29897 | 2526 ft | 183 kts | 264° |
| 2026-04-25 19:47 | 44.59137 | 26.28121 | 2477 ft | 186 kts | 265° |
| 2026-04-25 19:47 | 44.59010 | 26.26300 | 2226 ft | 184 kts | 264° |
| 2026-04-25 19:47 | 44.58879 | 26.24560 | 1974 ft | 173 kts | 264° |
| 2026-04-25 19:48 | 44.58755 | 26.22900 | 1746 ft | 173 kts | 264° |
| 2026-04-25 19:48 | 44.58627 | 26.21212 | 1508 ft | 172 kts | 264° |
| 2026-04-25 19:48 | 44.58506 | 26.19591 | 1282 ft | 158 kts | 263° |
| 2026-04-25 19:48 | 44.58397 | 26.18131 | 1083 ft | 142 kts | 263° |
| 2026-04-25 19:49 | 44.58299 | 26.16834 | 905 ft | 128 kts | 263° |
| 2026-04-25 19:49 | 44.58238 | 26.16019 | 802 ft | 130 kts | 262° |
| 2026-04-25 19:49 | 44.58112 | 26.14358 | 577 ft | 127 kts | 262° |
| 2026-04-25 19:49 | 44.58022 | 26.13117 | 401 ft | 127 kts | 262° |
| 2026-04-25 19:50 | 44.57847 | 26.11023 | 322 ft | 66 kts | 263° |
| 2026-04-25 19:50 | 44.57814 | 26.10598 | 322 ft | 41 kts | 262° |
| 2026-04-25 19:50 | 44.57773 | 26.10029 | 321 ft | 74 kts | 264° |
| 2026-04-25 19:51 | 44.57722 | 26.09294 | 319 ft | 72 kts | 264° |
| 2026-04-25 19:51 | 44.57674 | 26.08727 | 322 ft | 27 kts | 263° |
| 2026-04-25 19:51 | 44.57660 | 26.08517 | 322 ft | 0 kts | 261° |
| 2026-04-25 19:51 | 44.57649 | 26.08492 | 321 ft | 6 kts | 237° |
| 2026-04-25 19:52 | 44.57600 | 26.08451 | 322 ft | 11 kts | 190° |
| 2026-04-25 19:52 | 44.57519 | 26.08463 | 320 ft | 8 kts | 173° |
| 2026-04-25 19:52 | 44.57445 | 26.08474 | 323 ft | 13 kts | 174° |
| 2026-04-25 19:52 | 44.57337 | 26.08489 | 321 ft | 18 kts | 174° |
| 2026-04-25 19:53 | 44.57232 | 26.08502 | 321 ft | 11 kts | 175° |
| 2026-04-25 19:53 | 44.57181 | 26.08510 | 320 ft | 8 kts | 173° |
| 2026-04-25 19:53 | 44.57170 | 26.08511 | 322 ft | 1 kts | 173° |
| 2026-04-25 19:53 | 44.57128 | 26.08519 | 321 ft | 10 kts | 173° |
| 2026-04-25 19:54 | 44.57035 | 26.08534 | 320 ft | 15 kts | 174° |
| 2026-04-25 19:54 | 44.56961 | 26.08544 | 321 ft | 9 kts | 174° |
| 2026-04-25 19:54 | 44.56900 | 26.08505 | 322 ft | 12 kts | 240° |
| 2026-04-25 19:54 | 44.56906 | 26.08424 | 320 ft | 14 kts | 305° |
| 2026-04-25 19:55 | 44.56950 | 26.08311 | 321 ft | 11 kts | 270° |
| 2026-04-25 19:55 | 44.56943 | 26.08216 | 323 ft | 10 kts | 264° |
| 2026-04-25 19:55 | 44.56937 | 26.08127 | 320 ft | 11 kts | 263° |
| 2026-04-25 19:55 | 44.56932 | 26.08069 | 320 ft | 5 kts | 263° |
| 2026-04-25 19:56 | 44.56927 | 26.08002 | 323 ft | 7 kts | 265° |
| 2026-04-25 19:56 | 44.56945 | 26.07977 | 320 ft | 3 kts | 349° |
| 2026-04-25 19:56 | 44.56985 | 26.07967 | 320 ft | 9 kts | 353° |
| 2026-04-25 19:56 | 44.57002 | 26.07964 | 322 ft | 5 kts | 353° |
| 2026-04-25 19:57 | 44.57013 | 26.07963 | 321 ft | 0 kts | 353° |